createdAt,value
2022-11-30T00:00:23.712Z,96
2022-11-30T00:05:29.798Z,96
2022-11-30T00:10:17.807Z,96
2022-11-30T00:15:24.016Z,96
2022-11-30T00:20:30.701Z,96
2022-11-30T00:25:19.013Z,96
2022-11-30T00:30:25.141Z,96
2022-11-30T00:35:31.088Z,97
2022-11-30T00:40:21.467Z,97
2022-11-30T00:45:26.374Z,97
2022-11-30T00:50:32.349Z,97
2022-11-30T00:55:21.269Z,97
2022-11-30T01:00:28.381Z,97
2022-11-30T01:05:32.788Z,97
2022-11-30T01:10:21.757Z,97
2022-11-30T01:15:27.606Z,97
2022-11-30T01:20:20.711Z,97
2022-11-30T01:25:22.623Z,97
2022-11-30T01:30:28.673Z,97
2022-11-30T01:35:17.824Z,97
2022-11-30T01:40:54.320Z,97
2022-11-30T01:45:29.839Z,97
2022-11-30T01:50:18.782Z,97
2022-11-30T01:55:24.948Z,97
2022-11-30T02:00:31.835Z,97
2022-11-30T02:05:19.375Z,97
2022-11-30T02:10:25.423Z,97
2022-11-30T02:15:31.144Z,97
2022-11-30T02:20:20.816Z,97
2022-11-30T02:25:26.129Z,97
2022-11-30T02:30:32.237Z,97
2022-11-30T02:35:21.222Z,97
2022-11-30T02:40:46.365Z,97
2022-11-30T02:45:16.372Z,97
2022-11-30T02:50:22.486Z,97
2022-11-30T02:55:28.501Z,97
2022-11-30T03:00:18.492Z,97
2022-11-30T03:05:23.656Z,97
2022-11-30T03:10:29.018Z,97
2022-11-30T03:15:18.636Z,97
2022-11-30T03:20:26.095Z,97
2022-11-30T03:25:30.806Z,97
2022-11-30T03:30:19.881Z,97
2022-11-30T03:35:25.971Z,97
2022-11-30T03:40:33.045Z,97
2022-11-30T03:45:21.008Z,97
2022-11-30T03:50:27.181Z,97
2022-11-30T03:55:33.083Z,97
2022-11-30T04:00:23.172Z,97
2022-11-30T04:05:29.080Z,96
2022-11-30T04:10:17.203Z,96
2022-11-30T04:15:23.592Z,95
2022-11-30T04:20:30.615Z,95
2022-11-30T04:25:18.480Z,95
2022-11-30T04:30:24.586Z,95
2022-11-30T04:35:30.564Z,95
2022-11-30T04:40:21.674Z,95
2022-11-30T04:45:25.672Z,94
2022-11-30T04:50:31.836Z,94
2022-11-30T04:55:20.713Z,94
2022-11-30T05:00:27.947Z,94
2022-11-30T05:05:32.457Z,94
2022-11-30T05:10:22.711Z,95
2022-11-30T05:15:27.055Z,94
2022-11-30T05:20:17.072Z,94
2022-11-30T05:25:22.215Z,94
2022-11-30T05:30:28.263Z,94
2022-11-30T05:35:17.420Z,94
2022-11-30T05:40:24.755Z,94
2022-11-30T05:45:29.438Z,94
2022-11-30T05:50:18.411Z,94
2022-11-30T05:55:24.746Z,94
2022-11-30T06:00:31.448Z,94
2022-11-30T06:05:19.102Z,94
2022-11-30T06:10:24.998Z,94
2022-11-30T06:15:31.801Z,94
2022-11-30T06:20:21.819Z,94
2022-11-30T06:25:26.880Z,94
2022-11-30T06:30:33.632Z,94
2022-11-30T06:35:21.876Z,95
2022-11-30T06:40:29.272Z,95
2022-11-30T06:45:16.984Z,95
2022-11-30T06:50:23.165Z,95
2022-11-30T06:55:29.254Z,95
2022-11-30T07:00:18.882Z,94
2022-11-30T07:05:24.301Z,94
2022-11-30T07:10:30.152Z,94
2022-11-30T07:15:19.404Z,93
2022-11-30T07:20:26.632Z,93
2022-11-30T07:25:31.769Z,93
2022-11-30T07:30:20.598Z,93
2022-11-30T07:35:26.628Z,93
2022-11-30T07:40:34.001Z,92
2022-11-30T07:45:21.697Z,92
2022-11-30T07:50:28.607Z,91
2022-11-30T07:55:16.877Z,91
2022-11-30T08:00:24.298Z,91
2022-11-30T08:05:28.898Z,92
2022-11-30T08:10:18.243Z,91
2022-11-30T08:15:27.351Z,91
2022-11-30T08:20:29.952Z,92
2022-11-30T08:25:18.247Z,92
2022-11-30T08:30:29.424Z,92
2022-11-30T08:35:30.263Z,91
2022-11-30T08:40:20.467Z,90
2022-11-30T08:45:25.404Z,90
2022-11-30T08:50:31.548Z,90
2022-11-30T08:55:20.514Z,90
2022-11-30T09:00:27.601Z,90
2022-11-30T09:05:31.949Z,90
2022-11-30T09:10:20.945Z,90
2022-11-30T09:15:27.884Z,90
2022-11-30T09:20:17.652Z,90
2022-11-30T09:25:22.899Z,90
2022-11-30T09:30:29.160Z,90
2022-11-30T09:35:17.902Z,90
2022-11-30T09:40:47.843Z,91
2022-11-30T09:45:30.032Z,90
2022-11-30T09:50:19.224Z,90
2022-11-30T09:55:25.175Z,91
2022-11-30T10:00:32.764Z,91
2022-11-30T10:05:20.812Z,91
2022-11-30T10:10:33.755Z,91
2022-11-30T10:15:31.405Z,91
2022-11-30T10:20:49.006Z,91
2022-11-30T10:25:26.482Z,91
2022-11-30T10:30:32.777Z,90
2022-11-30T10:35:21.561Z,91
2022-11-30T10:40:29.177Z,90
2022-11-30T10:45:16.674Z,90
2022-11-30T10:50:22.773Z,90
2022-11-30T10:55:28.845Z,90
2022-11-30T11:00:18.699Z,90
2022-11-30T11:05:23.972Z,90
2022-11-30T11:10:30.050Z,90
2022-11-30T11:15:18.007Z,90
2022-11-30T11:20:25.456Z,90
2022-11-30T11:25:30.161Z,90
2022-11-30T11:30:19.133Z,90
2022-11-30T11:35:25.224Z,89
2022-11-30T11:40:32.195Z,89
2022-11-30T11:45:20.333Z,89
2022-11-30T11:51:04.358Z,89
2022-11-30T11:55:32.487Z,89
2022-11-30T12:00:22.367Z,89
2022-11-30T12:05:28.391Z,89
2022-11-30T12:10:43.662Z,89
2022-11-30T12:15:22.672Z,90
2022-11-30T12:20:29.830Z,90
2022-11-30T12:25:17.802Z,90
2022-11-30T12:30:23.939Z,90
2022-11-30T12:35:30.051Z,89
2022-11-30T12:40:19.965Z,89
2022-11-30T12:45:24.983Z,89
2022-11-30T12:50:31.646Z,89
2022-11-30T12:55:20.103Z,89
2022-11-30T13:00:27.386Z,88
2022-11-30T13:05:32.175Z,88
2022-11-30T13:10:21.121Z,88
2022-11-30T13:15:27.248Z,89
2022-11-30T13:20:26.699Z,89
2022-11-30T13:25:45.027Z,89
2022-11-30T13:30:28.474Z,89
2022-11-30T13:35:17.460Z,89
2022-11-30T13:40:25.000Z,88
2022-11-30T13:45:29.627Z,88
2022-11-30T13:50:18.709Z,88
2022-11-30T13:55:24.661Z,89
2022-11-30T14:00:32.394Z,89
2022-11-30T14:05:20.173Z,89
2022-11-30T14:10:25.436Z,89
2022-11-30T14:15:31.055Z,89
2022-11-30T14:20:20.885Z,89
2022-11-30T14:25:26.092Z,89
2022-11-30T14:30:32.160Z,89
2022-11-30T14:35:21.320Z,89
2022-11-30T14:40:28.674Z,89
2022-11-30T14:45:17.196Z,89
2022-11-30T14:50:22.509Z,89
2022-11-30T14:55:28.454Z,89
2022-11-30T15:00:18.166Z,89
2022-11-30T15:05:23.440Z,89
2022-11-30T15:10:29.860Z,89
2022-11-30T15:15:18.728Z,90
2022-11-30T15:20:29.119Z,89
2022-11-30T15:25:30.951Z,89
2022-11-30T15:30:19.816Z,90
2022-11-30T15:35:34.317Z,90
2022-11-30T15:40:33.314Z,90
2022-11-30T15:45:20.990Z,90
2022-11-30T15:50:27.173Z,90
2022-11-30T15:55:33.207Z,89
2022-11-30T16:00:23.095Z,89
2022-11-30T16:05:27.864Z,90
2022-11-30T16:10:16.867Z,90
2022-11-30T16:15:22.388Z,90
2022-11-30T16:20:31.609Z,89
2022-11-30T16:25:17.392Z,89
2022-11-30T16:30:23.526Z,89
2022-11-30T16:35:29.598Z,89
2022-11-30T16:40:19.786Z,88
2022-11-30T16:45:24.824Z,88
2022-11-30T16:50:30.705Z,89
2022-11-30T16:55:19.694Z,89
2022-11-30T17:00:26.752Z,89
2022-11-30T17:05:32.199Z,89
2022-11-30T17:10:21.069Z,89
2022-11-30T17:15:26.237Z,90
2022-11-30T17:20:33.180Z,90
2022-11-30T17:25:21.283Z,90
2022-11-30T17:30:27.511Z,90
2022-11-30T17:35:16.356Z,90
2022-11-30T17:40:35.684Z,90
2022-11-30T17:45:28.551Z,90
2022-11-30T17:50:17.492Z,90
2022-11-30T17:55:24.381Z,90
2022-11-30T18:00:30.359Z,90
2022-11-30T18:05:18.543Z,90
2022-11-30T18:10:24.582Z,90
2022-11-30T18:15:30.946Z,90
2022-11-30T18:20:20.564Z,90
2022-11-30T18:25:26.006Z,90
2022-11-30T18:30:32.198Z,90
2022-11-30T18:35:21.030Z,90
2022-11-30T18:40:28.048Z,90
2022-11-30T18:45:33.312Z,90
2022-11-30T18:50:22.187Z,90
2022-11-30T18:55:28.289Z,90
2022-11-30T19:00:18.099Z,91
2022-11-30T19:05:22.945Z,91
2022-11-30T19:10:28.740Z,91
2022-11-30T19:15:17.518Z,91
2022-11-30T19:20:24.818Z,91
2022-11-30T19:25:29.671Z,92
2022-11-30T19:30:18.554Z,92
2022-11-30T19:35:24.814Z,92
2022-11-30T19:40:32.047Z,92
2022-11-30T19:45:19.743Z,92
2022-11-30T19:50:25.893Z,92
2022-11-30T19:55:31.940Z,92
2022-11-30T20:00:21.565Z,92
2022-11-30T20:05:26.410Z,93
2022-11-30T20:10:32.791Z,93
2022-11-30T20:15:21.174Z,93
2022-11-30T20:20:28.201Z,93
2022-11-30T20:25:16.342Z,93
2022-11-30T20:30:22.361Z,93
2022-11-30T20:35:28.399Z,93
2022-11-30T20:40:30.763Z,93
2022-11-30T20:45:23.481Z,93
2022-11-30T20:50:30.366Z,93
2022-11-30T20:55:18.614Z,92
2022-11-30T21:00:25.771Z,92
2022-11-30T21:05:30.830Z,93
2022-11-30T21:10:19.171Z,93
2022-11-30T21:15:26.623Z,93
2022-11-30T21:20:33.084Z,93
2022-11-30T21:25:21.038Z,93
2022-11-30T21:30:27.032Z,93
2022-11-30T21:35:33.022Z,93
2022-11-30T21:40:23.225Z,92
2022-11-30T21:45:28.142Z,92
2022-11-30T21:50:17.199Z,93
2022-11-30T21:55:23.381Z,93
2022-11-30T22:00:30.415Z,93
2022-11-30T22:05:17.752Z,94
2022-11-30T22:10:23.837Z,94
2022-11-30T22:15:29.995Z,94
2022-11-30T22:20:19.317Z,95
2022-11-30T22:25:24.683Z,95
2022-11-30T22:30:30.672Z,95
2022-11-30T22:35:19.655Z,95
2022-11-30T22:40:27.232Z,95
2022-11-30T22:45:31.843Z,95
2022-11-30T22:50:20.823Z,96
2022-11-30T22:55:27.164Z,96
2022-11-30T23:00:34.172Z,96
2022-11-30T23:05:21.440Z,96
2022-11-30T23:10:27.412Z,96
2022-11-30T23:15:17.301Z,96
2022-11-30T23:20:23.042Z,96
2022-11-30T23:25:28.426Z,96
2022-11-30T23:30:17.281Z,96
2022-11-30T23:35:23.384Z,97
2022-11-30T23:40:30.409Z,97
2022-11-30T23:45:18.592Z,97
2022-11-30T23:50:24.540Z,97
2022-11-30T23:55:30.597Z,97
